sensor_id;sensor_type;location;lat;lon;timestamp;P1;durP1;ratioP1;P2;durP2;ratioP2
82618;SDS011;72286;12.138;-68.936;2023-08-24T00:01:17;12.70;;;4.10;;
82618;SDS011;72286;12.138;-68.936;2023-08-24T00:04:54;14.90;;;4.40;;
82618;SDS011;72286;12.138;-68.936;2023-08-24T00:08:32;11.30;;;4.30;;
82618;SDS011;72286;12.138;-68.936;2023-08-24T00:12:09;9.10;;;3.60;;
82618;SDS011;72286;12.138;-68.936;2023-08-24T00:15:48;11.70;;;3.90;;
82618;SDS011;72286;12.138;-68.936;2023-08-24T00:19:44;9.70;;;3.90;;
82618;SDS011;72286;12.138;-68.936;2023-08-24T00:23:23;14.20;;;4.60;;
82618;SDS011;72286;12.138;-68.936;2023-08-24T00:26:40;9.30;;;4.20;;
82618;SDS011;72286;12.138;-68.936;2023-08-24T00:30:38;9.10;;;4.10;;
82618;SDS011;72286;12.138;-68.936;2023-08-24T00:33:56;11.20;;;4.40;;
82618;SDS011;72286;12.138;-68.936;2023-08-24T00:37:34;12.00;;;4.70;;
82618;SDS011;72286;12.138;-68.936;2023-08-24T00:41:12;10.90;;;4.30;;
82618;SDS011;72286;12.138;-68.936;2023-08-24T00:44:49;10.30;;;4.10;;
82618;SDS011;72286;12.138;-68.936;2023-08-24T00:48:26;11.10;;;4.30;;
82618;SDS011;72286;12.138;-68.936;2023-08-24T00:52:05;11.90;;;4.30;;
82618;SDS011;72286;12.138;-68.936;2023-08-24T00:55:42;9.60;;;4.20;;
82618;SDS011;72286;12.138;-68.936;2023-08-24T00:59:20;12.30;;;4.50;;
82618;SDS011;72286;12.138;-68.936;2023-08-24T01:02:57;12.10;;;4.30;;
82618;SDS011;72286;12.138;-68.936;2023-08-24T01:06:35;11.80;;;4.30;;
82618;SDS011;72286;12.138;-68.936;2023-08-24T01:10:12;12.00;;;4.50;;
82618;SDS011;72286;12.138;-68.936;2023-08-24T01:17:28;11.20;;;4.40;;
82618;SDS011;72286;12.138;-68.936;2023-08-24T01:21:27;16.00;;;5.20;;
82618;SDS011;72286;12.138;-68.936;2023-08-24T01:24:53;11.90;;;5.10;;
82618;SDS011;72286;12.138;-68.936;2023-08-24T01:28:42;11.30;;;4.40;;
82618;SDS011;72286;12.138;-68.936;2023-08-24T01:32:18;9.20;;;4.50;;
82618;SDS011;72286;12.138;-68.936;2023-08-24T01:35:56;12.00;;;4.60;;
82618;SDS011;72286;12.138;-68.936;2023-08-24T01:39:48;11.10;;;4.80;;
82618;SDS011;72286;12.138;-68.936;2023-08-24T01:43:30;12.50;;;4.70;;
82618;SDS011;72286;12.138;-68.936;2023-08-24T01:47:28;11.40;;;4.80;;
82618;SDS011;72286;12.138;-68.936;2023-08-24T01:50:49;11.70;;;4.80;;
82618;SDS011;72286;12.138;-68.936;2023-08-24T01:54:43;14.40;;;4.80;;
82618;SDS011;72286;12.138;-68.936;2023-08-24T01:58:02;10.90;;;4.10;;
82618;SDS011;72286;12.138;-68.936;2023-08-24T02:01:59;16.00;;;5.20;;
82618;SDS011;72286;12.138;-68.936;2023-08-24T02:05:17;10.70;;;4.00;;
82618;SDS011;72286;12.138;-68.936;2023-08-24T02:08:54;13.00;;;4.30;;
82618;SDS011;72286;12.138;-68.936;2023-08-24T02:12:33;12.60;;;4.80;;
82618;SDS011;72286;12.138;-68.936;2023-08-24T02:16:10;12.20;;;4.20;;
82618;SDS011;72286;12.138;-68.936;2023-08-24T02:19:48;16.70;;;4.70;;
82618;SDS011;72286;12.138;-68.936;2023-08-24T02:23:25;14.90;;;4.60;;
82618;SDS011;72286;12.138;-68.936;2023-08-24T02:27:23;10.80;;;4.00;;
82618;SDS011;72286;12.138;-68.936;2023-08-24T02:30:41;14.10;;;4.50;;
82618;SDS011;72286;12.138;-68.936;2023-08-24T02:34:19;13.60;;;4.80;;
82618;SDS011;72286;12.138;-68.936;2023-08-24T02:38:16;11.30;;;4.80;;
82618;SDS011;72286;12.138;-68.936;2023-08-24T02:41:34;12.80;;;5.20;;
82618;SDS011;72286;12.138;-68.936;2023-08-24T02:45:31;10.60;;;4.50;;
82618;SDS011;72286;12.138;-68.936;2023-08-24T02:48:50;13.90;;;4.60;;
82618;SDS011;72286;12.138;-68.936;2023-08-24T02:52:27;15.40;;;4.70;;
82618;SDS011;72286;12.138;-68.936;2023-08-24T02:56:05;10.80;;;4.70;;
82618;SDS011;72286;12.138;-68.936;2023-08-24T02:59:42;11.60;;;4.10;;
82618;SDS011;72286;12.138;-68.936;2023-08-24T03:03:20;13.10;;;4.70;;
82618;SDS011;72286;12.138;-68.936;2023-08-24T03:06:58;14.70;;;4.50;;
82618;SDS011;72286;12.138;-68.936;2023-08-24T03:10:36;12.10;;;4.50;;
82618;SDS011;72286;12.138;-68.936;2023-08-24T03:14:13;11.10;;;4.00;;
82618;SDS011;72286;12.138;-68.936;2023-08-24T03:17:51;13.30;;;4.30;;
82618;SDS011;72286;12.138;-68.936;2023-08-24T03:21:28;10.80;;;4.30;;
82618;SDS011;72286;12.138;-68.936;2023-08-24T03:25:26;11.40;;;3.80;;
82618;SDS011;72286;12.138;-68.936;2023-08-24T03:29:03;15.20;;;5.50;;
82618;SDS011;72286;12.138;-68.936;2023-08-24T03:32:42;13.40;;;4.70;;
82618;SDS011;72286;12.138;-68.936;2023-08-24T03:35:59;10.20;;;4.40;;
82618;SDS011;72286;12.138;-68.936;2023-08-24T03:39:38;10.90;;;4.70;;
82618;SDS011;72286;12.138;-68.936;2023-08-24T03:43:14;11.70;;;4.00;;
82618;SDS011;72286;12.138;-68.936;2023-08-24T03:46:53;11.20;;;4.30;;
82618;SDS011;72286;12.138;-68.936;2023-08-24T03:50:30;12.70;;;4.30;;
82618;SDS011;72286;12.138;-68.936;2023-08-24T03:54:08;9.90;;;4.20;;
82618;SDS011;72286;12.138;-68.936;2023-08-24T03:57:45;9.60;;;4.20;;
82618;SDS011;72286;12.138;-68.936;2023-08-24T04:01:23;10.60;;;4.60;;
82618;SDS011;72286;12.138;-68.936;2023-08-24T04:05:00;9.40;;;4.10;;
82618;SDS011;72286;12.138;-68.936;2023-08-24T04:08:39;12.10;;;5.00;;
82618;SDS011;72286;12.138;-68.936;2023-08-24T04:12:16;13.80;;;4.90;;
82618;SDS011;72286;12.138;-68.936;2023-08-24T04:15:54;9.70;;;4.00;;
82618;SDS011;72286;12.138;-68.936;2023-08-24T04:19:51;9.30;;;3.90;;
82618;SDS011;72286;12.138;-68.936;2023-08-24T04:23:29;10.40;;;4.10;;
82618;SDS011;72286;12.138;-68.936;2023-08-24T04:26:47;11.00;;;4.30;;
82618;SDS011;72286;12.138;-68.936;2023-08-24T04:30:25;12.20;;;4.20;;
82618;SDS011;72286;12.138;-68.936;2023-08-24T04:34:03;12.10;;;5.20;;
82618;SDS011;72286;12.138;-68.936;2023-08-24T04:37:40;13.00;;;4.30;;
82618;SDS011;72286;12.138;-68.936;2023-08-24T04:41:17;13.60;;;4.90;;
82618;SDS011;72286;12.138;-68.936;2023-08-24T04:45:15;8.90;;;4.30;;
82618;SDS011;72286;12.138;-68.936;2023-08-24T04:48:33;10.90;;;4.40;;
82618;SDS011;72286;12.138;-68.936;2023-08-24T04:52:11;9.30;;;4.50;;
82618;SDS011;72286;12.138;-68.936;2023-08-24T04:55:48;10.30;;;3.90;;
82618;SDS011;72286;12.138;-68.936;2023-08-24T04:59:26;11.20;;;4.10;;
82618;SDS011;72286;12.138;-68.936;2023-08-24T05:03:23;10.30;;;4.30;;
82618;SDS011;72286;12.138;-68.936;2023-08-24T05:06:42;17.00;;;5.60;;
82618;SDS011;72286;12.138;-68.936;2023-08-24T05:10:19;13.60;;;5.60;;
82618;SDS011;72286;12.138;-68.936;2023-08-24T05:13:57;12.90;;;5.40;;
82618;SDS011;72286;12.138;-68.936;2023-08-24T05:17:34;12.40;;;5.00;;
82618;SDS011;72286;12.138;-68.936;2023-08-24T05:21:12;14.00;;;5.40;;
82618;SDS011;72286;12.138;-68.936;2023-08-24T05:24:50;11.40;;;4.50;;
82618;SDS011;72286;12.138;-68.936;2023-08-24T05:28:28;9.60;;;4.30;;
82618;SDS011;72286;12.138;-68.936;2023-08-24T05:32:05;12.60;;;4.40;;
82618;SDS011;72286;12.138;-68.936;2023-08-24T05:35:43;9.90;;;4.30;;
82618;SDS011;72286;12.138;-68.936;2023-08-24T05:39:25;12.40;;;4.40;;
82618;SDS011;72286;12.138;-68.936;2023-08-24T05:43:00;10.40;;;4.40;;
82618;SDS011;72286;12.138;-68.936;2023-08-24T05:46:37;14.40;;;4.60;;
82618;SDS011;72286;12.138;-68.936;2023-08-24T05:50:15;10.50;;;4.20;;
82618;SDS011;72286;12.138;-68.936;2023-08-24T05:53:53;9.50;;;4.40;;
82618;SDS011;72286;12.138;-68.936;2023-08-24T05:57:51;10.60;;;4.30;;
82618;SDS011;72286;12.138;-68.936;2023-08-24T06:01:28;10.30;;;4.30;;
82618;SDS011;72286;12.138;-68.936;2023-08-24T06:05:07;10.70;;;4.20;;
82618;SDS011;72286;12.138;-68.936;2023-08-24T06:08:43;11.30;;;4.40;;
82618;SDS011;72286;12.138;-68.936;2023-08-24T06:12:22;9.40;;;4.10;;
82618;SDS011;72286;12.138;-68.936;2023-08-24T06:15:59;9.80;;;4.00;;
82618;SDS011;72286;12.138;-68.936;2023-08-24T06:19:17;9.80;;;4.00;;
82618;SDS011;72286;12.138;-68.936;2023-08-24T06:22:55;8.10;;;4.10;;
82618;SDS011;72286;12.138;-68.936;2023-08-24T06:26:53;13.10;;;4.80;;
82618;SDS011;72286;12.138;-68.936;2023-08-24T06:30:10;8.60;;;4.20;;
82618;SDS011;72286;12.138;-68.936;2023-08-24T06:33:49;10.30;;;4.90;;
82618;SDS011;72286;12.138;-68.936;2023-08-24T06:37:26;11.10;;;4.30;;
82618;SDS011;72286;12.138;-68.936;2023-08-24T06:41:23;10.10;;;4.80;;
82618;SDS011;72286;12.138;-68.936;2023-08-24T06:44:41;11.10;;;4.50;;
82618;SDS011;72286;12.138;-68.936;2023-08-24T06:48:19;7.20;;;4.30;;
82618;SDS011;72286;12.138;-68.936;2023-08-24T06:51:56;8.30;;;4.40;;
82618;SDS011;72286;12.138;-68.936;2023-08-24T06:55:34;7.60;;;4.10;;
82618;SDS011;72286;12.138;-68.936;2023-08-24T06:59:12;10.80;;;4.50;;
82618;SDS011;72286;12.138;-68.936;2023-08-24T07:02:50;9.40;;;4.70;;
82618;SDS011;72286;12.138;-68.936;2023-08-24T07:06:27;10.80;;;4.50;;
82618;SDS011;72286;12.138;-68.936;2023-08-24T07:10:05;9.90;;;4.40;;
82618;SDS011;72286;12.138;-68.936;2023-08-24T07:13:42;10.70;;;4.10;;
82618;SDS011;72286;12.138;-68.936;2023-08-24T07:17:20;9.80;;;4.40;;
82618;SDS011;72286;12.138;-68.936;2023-08-24T07:20:58;9.10;;;4.50;;
82618;SDS011;72286;12.138;-68.936;2023-08-24T07:24:36;10.10;;;4.70;;
82618;SDS011;72286;12.138;-68.936;2023-08-24T07:28:13;11.20;;;4.60;;
82618;SDS011;72286;12.138;-68.936;2023-08-24T07:31:51;8.20;;;4.80;;
82618;SDS011;72286;12.138;-68.936;2023-08-24T07:35:28;9.60;;;5.00;;
82618;SDS011;72286;12.138;-68.936;2023-08-24T07:39:07;12.80;;;4.90;;
82618;SDS011;72286;12.138;-68.936;2023-08-24T07:42:45;10.60;;;4.80;;
82618;SDS011;72286;12.138;-68.936;2023-08-24T07:46:29;11.80;;;4.90;;
82618;SDS011;72286;12.138;-68.936;2023-08-24T07:50:07;12.70;;;4.80;;
82618;SDS011;72286;12.138;-68.936;2023-08-24T07:53:45;11.50;;;4.90;;
82618;SDS011;72286;12.138;-68.936;2023-08-24T07:57:22;15.90;;;4.90;;
82618;SDS011;72286;12.138;-68.936;2023-08-24T08:01:00;11.00;;;4.70;;
82618;SDS011;72286;12.138;-68.936;2023-08-24T08:04:37;11.50;;;4.80;;
82618;SDS011;72286;12.138;-68.936;2023-08-24T08:08:16;8.80;;;4.90;;
82618;SDS011;72286;12.138;-68.936;2023-08-24T08:11:53;9.70;;;4.60;;
82618;SDS011;72286;12.138;-68.936;2023-08-24T08:15:51;8.80;;;5.10;;
82618;SDS011;72286;12.138;-68.936;2023-08-24T08:19:28;9.00;;;4.60;;
82618;SDS011;72286;12.138;-68.936;2023-08-24T08:22:46;14.60;;;5.50;;
82618;SDS011;72286;12.138;-68.936;2023-08-24T08:26:24;10.70;;;4.60;;
82618;SDS011;72286;12.138;-68.936;2023-08-24T08:30:02;9.60;;;5.10;;
82618;SDS011;72286;12.138;-68.936;2023-08-24T08:33:39;9.70;;;4.40;;
82618;SDS011;72286;12.138;-68.936;2023-08-24T08:37:17;8.60;;;4.40;;
82618;SDS011;72286;12.138;-68.936;2023-08-24T08:41:02;8.40;;;5.10;;
82618;SDS011;72286;12.138;-68.936;2023-08-24T08:44:57;10.30;;;5.20;;
82618;SDS011;72286;12.138;-68.936;2023-08-24T08:48:15;13.80;;;5.50;;
82618;SDS011;72286;12.138;-68.936;2023-08-24T08:51:53;12.60;;;4.90;;
82618;SDS011;72286;12.138;-68.936;2023-08-24T08:55:30;11.10;;;5.30;;
82618;SDS011;72286;12.138;-68.936;2023-08-24T08:59:09;8.40;;;4.50;;
82618;SDS011;72286;12.138;-68.936;2023-08-24T09:02:47;9.00;;;4.80;;
82618;SDS011;72286;12.138;-68.936;2023-08-24T09:06:26;9.70;;;5.20;;
82618;SDS011;72286;12.138;-68.936;2023-08-24T09:10:23;10.60;;;5.40;;
82618;SDS011;72286;12.138;-68.936;2023-08-24T09:13:41;11.50;;;5.00;;
82618;SDS011;72286;12.138;-68.936;2023-08-24T09:17:21;12.00;;;5.00;;
82618;SDS011;72286;12.138;-68.936;2023-08-24T09:20:56;12.30;;;6.00;;
82618;SDS011;72286;12.138;-68.936;2023-08-24T09:24:34;10.30;;;5.20;;
82618;SDS011;72286;12.138;-68.936;2023-08-24T09:28:12;10.50;;;5.10;;
82618;SDS011;72286;12.138;-68.936;2023-08-24T09:31:50;11.20;;;5.30;;
82618;SDS011;72286;12.138;-68.936;2023-08-24T09:35:27;15.60;;;5.80;;
82618;SDS011;72286;12.138;-68.936;2023-08-24T09:39:04;7.70;;;4.90;;
82618;SDS011;72286;12.138;-68.936;2023-08-24T09:42:43;7.80;;;5.00;;
82618;SDS011;72286;12.138;-68.936;2023-08-24T09:46:20;11.00;;;6.00;;
82618;SDS011;72286;12.138;-68.936;2023-08-24T09:49:59;13.10;;;5.40;;
82618;SDS011;72286;12.138;-68.936;2023-08-24T09:53:36;9.20;;;5.60;;
82618;SDS011;72286;12.138;-68.936;2023-08-24T09:57:14;12.50;;;5.80;;
82618;SDS011;72286;12.138;-68.936;2023-08-24T10:00:51;9.80;;;5.40;;
82618;SDS011;72286;12.138;-68.936;2023-08-24T10:04:29;10.80;;;5.90;;
82618;SDS011;72286;12.138;-68.936;2023-08-24T10:08:09;11.80;;;5.80;;
82618;SDS011;72286;12.138;-68.936;2023-08-24T10:11:50;11.50;;;6.10;;
82618;SDS011;72286;12.138;-68.936;2023-08-24T10:15:30;9.00;;;5.60;;
82618;SDS011;72286;12.138;-68.936;2023-08-24T10:19:08;9.60;;;5.60;;
82618;SDS011;72286;12.138;-68.936;2023-08-24T10:22:45;11.50;;;6.10;;
82618;SDS011;72286;12.138;-68.936;2023-08-24T10:26:24;12.00;;;6.00;;
82618;SDS011;72286;12.138;-68.936;2023-08-24T10:30:20;14.60;;;6.70;;
82618;SDS011;72286;12.138;-68.936;2023-08-24T10:33:39;11.50;;;6.70;;
82618;SDS011;72286;12.138;-68.936;2023-08-24T10:37:16;13.20;;;6.10;;
82618;SDS011;72286;12.138;-68.936;2023-08-24T10:40:54;14.20;;;6.30;;
82618;SDS011;72286;12.138;-68.936;2023-08-24T10:44:37;13.40;;;5.90;;
82618;SDS011;72286;12.138;-68.936;2023-08-24T10:48:14;12.80;;;5.70;;
82618;SDS011;72286;12.138;-68.936;2023-08-24T10:51:51;14.70;;;6.10;;
82618;SDS011;72286;12.138;-68.936;2023-08-24T10:55:30;10.50;;;6.40;;
82618;SDS011;72286;12.138;-68.936;2023-08-24T10:59:16;14.90;;;6.40;;
82618;SDS011;72286;12.138;-68.936;2023-08-24T11:02:52;14.90;;;6.40;;
82618;SDS011;72286;12.138;-68.936;2023-08-24T11:06:29;16.50;;;5.80;;
82618;SDS011;72286;12.138;-68.936;2023-08-24T11:10:10;12.30;;;6.40;;
82618;SDS011;72286;12.138;-68.936;2023-08-24T11:18:10;13.10;;;6.30;;
82618;SDS011;72286;12.138;-68.936;2023-08-24T11:21:47;15.60;;;6.60;;
82618;SDS011;72286;12.138;-68.936;2023-08-24T11:25:25;10.60;;;5.80;;
82618;SDS011;72286;12.138;-68.936;2023-08-24T11:29:05;12.20;;;5.80;;
82618;SDS011;72286;12.138;-68.936;2023-08-24T11:32:40;11.30;;;5.50;;
82618;SDS011;72286;12.138;-68.936;2023-08-24T11:36:18;8.80;;;5.10;;
82618;SDS011;72286;12.138;-68.936;2023-08-24T11:39:56;12.40;;;5.50;;
82618;SDS011;72286;12.138;-68.936;2023-08-24T11:43:33;12.50;;;5.80;;
82618;SDS011;72286;12.138;-68.936;2023-08-24T11:47:12;12.40;;;5.70;;
82618;SDS011;72286;12.138;-68.936;2023-08-24T11:50:48;13.50;;;5.60;;
82618;SDS011;72286;12.138;-68.936;2023-08-24T11:54:27;11.40;;;5.90;;
82618;SDS011;72286;12.138;-68.936;2023-08-24T11:58:04;10.80;;;6.10;;
82618;SDS011;72286;12.138;-68.936;2023-08-24T12:01:42;8.80;;;5.20;;
82618;SDS011;72286;12.138;-68.936;2023-08-24T12:05:20;13.50;;;5.50;;
82618;SDS011;72286;12.138;-68.936;2023-08-24T12:08:57;10.60;;;5.30;;
82618;SDS011;72286;12.138;-68.936;2023-08-24T12:12:35;8.20;;;4.80;;
82618;SDS011;72286;12.138;-68.936;2023-08-24T12:16:13;11.70;;;5.80;;
82618;SDS011;72286;12.138;-68.936;2023-08-24T12:19:59;10.90;;;5.50;;
82618;SDS011;72286;12.138;-68.936;2023-08-24T12:23:34;10.60;;;5.30;;
82618;SDS011;72286;12.138;-68.936;2023-08-24T12:27:31;7.40;;;5.10;;
82618;SDS011;72286;12.138;-68.936;2023-08-24T12:30:51;7.80;;;4.80;;
82618;SDS011;72286;12.138;-68.936;2023-08-24T12:34:27;10.30;;;5.50;;
82618;SDS011;72286;12.138;-68.936;2023-08-24T12:38:05;8.80;;;5.20;;
82618;SDS011;72286;12.138;-68.936;2023-08-24T12:42:02;11.30;;;5.50;;
82618;SDS011;72286;12.138;-68.936;2023-08-24T12:45:21;12.10;;;5.60;;
82618;SDS011;72286;12.138;-68.936;2023-08-24T12:49:18;10.10;;;5.70;;
82618;SDS011;72286;12.138;-68.936;2023-08-24T12:52:36;8.80;;;5.20;;
82618;SDS011;72286;12.138;-68.936;2023-08-24T12:56:13;10.40;;;5.40;;
82618;SDS011;72286;12.138;-68.936;2023-08-24T12:59:51;8.80;;;5.50;;
82618;SDS011;72286;12.138;-68.936;2023-08-24T13:03:48;10.20;;;5.70;;
82618;SDS011;72286;12.138;-68.936;2023-08-24T13:07:07;11.30;;;5.90;;
82618;SDS011;72286;12.138;-68.936;2023-08-24T13:10:44;9.10;;;5.40;;
82618;SDS011;72286;12.138;-68.936;2023-08-24T13:14:22;6.90;;;4.80;;
82618;SDS011;72286;12.138;-68.936;2023-08-24T13:17:59;9.20;;;4.90;;
82618;SDS011;72286;12.138;-68.936;2023-08-24T13:21:37;12.20;;;5.50;;
82618;SDS011;72286;12.138;-68.936;2023-08-24T13:25:14;11.40;;;5.70;;
82618;SDS011;72286;12.138;-68.936;2023-08-24T13:28:53;8.80;;;5.50;;
82618;SDS011;72286;12.138;-68.936;2023-08-24T13:32:49;7.70;;;5.10;;
82618;SDS011;72286;12.138;-68.936;2023-08-24T13:36:08;9.50;;;5.80;;
82618;SDS011;72286;12.138;-68.936;2023-08-24T13:39:45;10.40;;;5.70;;
82618;SDS011;72286;12.138;-68.936;2023-08-24T13:43:24;9.60;;;5.50;;
82618;SDS011;72286;12.138;-68.936;2023-08-24T13:47:01;12.40;;;5.50;;
82618;SDS011;72286;12.138;-68.936;2023-08-24T13:50:59;8.30;;;5.90;;
82618;SDS011;72286;12.138;-68.936;2023-08-24T13:54:35;8.30;;;5.50;;
82618;SDS011;72286;12.138;-68.936;2023-08-24T13:57:54;10.20;;;6.00;;
82618;SDS011;72286;12.138;-68.936;2023-08-24T14:01:31;11.20;;;5.30;;
82618;SDS011;72286;12.138;-68.936;2023-08-24T14:05:10;10.10;;;5.20;;
82618;SDS011;72286;12.138;-68.936;2023-08-24T14:08:47;7.70;;;5.70;;
82618;SDS011;72286;12.138;-68.936;2023-08-24T14:12:25;11.30;;;4.50;;
82618;SDS011;72286;12.138;-68.936;2023-08-24T14:16:02;12.00;;;5.50;;
82618;SDS011;72286;12.138;-68.936;2023-08-24T14:19:40;10.70;;;5.10;;
82618;SDS011;72286;12.138;-68.936;2023-08-24T14:23:17;11.90;;;5.30;;
82618;SDS011;72286;12.138;-68.936;2023-08-24T14:26:56;9.10;;;4.80;;
82618;SDS011;72286;12.138;-68.936;2023-08-24T14:30:33;10.80;;;5.00;;
82618;SDS011;72286;12.138;-68.936;2023-08-24T14:34:11;10.10;;;4.80;;
82618;SDS011;72286;12.138;-68.936;2023-08-24T14:38:08;12.90;;;5.90;;
82618;SDS011;72286;12.138;-68.936;2023-08-24T14:41:26;10.60;;;5.50;;
82618;SDS011;72286;12.138;-68.936;2023-08-24T14:45:23;9.30;;;5.30;;
82618;SDS011;72286;12.138;-68.936;2023-08-24T14:48:42;14.10;;;7.30;;
82618;SDS011;72286;12.138;-68.936;2023-08-24T14:52:19;9.40;;;5.90;;
82618;SDS011;72286;12.138;-68.936;2023-08-24T14:55:57;10.90;;;6.20;;
82618;SDS011;72286;12.138;-68.936;2023-08-24T14:59:34;10.80;;;6.60;;
82618;SDS011;72286;12.138;-68.936;2023-08-24T15:03:13;11.10;;;6.40;;
82618;SDS011;72286;12.138;-68.936;2023-08-24T15:06:50;9.30;;;6.90;;
82618;SDS011;72286;12.138;-68.936;2023-08-24T15:10:28;8.50;;;6.50;;
82618;SDS011;72286;12.138;-68.936;2023-08-24T15:14:05;13.60;;;6.70;;
82618;SDS011;72286;12.138;-68.936;2023-08-24T15:17:43;8.60;;;6.10;;
82618;SDS011;72286;12.138;-68.936;2023-08-24T15:21:20;8.60;;;6.20;;
82618;SDS011;72286;12.138;-68.936;2023-08-24T15:24:59;8.50;;;6.80;;
82618;SDS011;72286;12.138;-68.936;2023-08-24T15:28:36;14.60;;;6.80;;
82618;SDS011;72286;12.138;-68.936;2023-08-24T15:32:31;11.90;;;6.80;;
82618;SDS011;72286;12.138;-68.936;2023-08-24T15:36:08;10.40;;;6.50;;
82618;SDS011;72286;12.138;-68.936;2023-08-24T15:39:46;11.10;;;6.40;;
82618;SDS011;72286;12.138;-68.936;2023-08-24T15:43:23;10.10;;;5.80;;
82618;SDS011;72286;12.138;-68.936;2023-08-24T15:47:02;10.20;;;5.60;;
82618;SDS011;72286;12.138;-68.936;2023-08-24T15:50:58;9.30;;;5.80;;
82618;SDS011;72286;12.138;-68.936;2023-08-24T15:54:17;9.40;;;5.90;;
82618;SDS011;72286;12.138;-68.936;2023-08-24T15:57:54;10.20;;;6.40;;
82618;SDS011;72286;12.138;-68.936;2023-08-24T16:01:32;8.80;;;6.00;;
82618;SDS011;72286;12.138;-68.936;2023-08-24T16:05:10;10.00;;;6.00;;
82618;SDS011;72286;12.138;-68.936;2023-08-24T16:08:48;9.20;;;6.00;;
82618;SDS011;72286;12.138;-68.936;2023-08-24T16:12:25;10.70;;;6.50;;
82618;SDS011;72286;12.138;-68.936;2023-08-24T16:16:03;9.30;;;5.90;;
82618;SDS011;72286;12.138;-68.936;2023-08-24T16:19:42;11.30;;;6.20;;
82618;SDS011;72286;12.138;-68.936;2023-08-24T16:23:19;9.80;;;5.90;;
82618;SDS011;72286;12.138;-68.936;2023-08-24T16:26:56;8.40;;;6.10;;
82618;SDS011;72286;12.138;-68.936;2023-08-24T16:30:53;10.80;;;7.20;;
82618;SDS011;72286;12.138;-68.936;2023-08-24T16:34:11;11.30;;;7.00;;
82618;SDS011;72286;12.138;-68.936;2023-08-24T16:37:49;9.00;;;6.30;;
82618;SDS011;72286;12.138;-68.936;2023-08-24T16:41:26;11.00;;;6.60;;
82618;SDS011;72286;12.138;-68.936;2023-08-24T16:45:05;9.30;;;6.50;;
82618;SDS011;72286;12.138;-68.936;2023-08-24T16:49:02;10.70;;;6.80;;
82618;SDS011;72286;12.138;-68.936;2023-08-24T16:52:20;9.30;;;6.60;;
82618;SDS011;72286;12.138;-68.936;2023-08-24T16:55:57;11.10;;;7.80;;
82618;SDS011;72286;12.138;-68.936;2023-08-24T16:59:35;12.40;;;7.50;;
82618;SDS011;72286;12.138;-68.936;2023-08-24T17:03:13;11.50;;;7.40;;
82618;SDS011;72286;12.138;-68.936;2023-08-24T17:06:51;11.90;;;7.90;;
82618;SDS011;72286;12.138;-68.936;2023-08-24T17:10:28;9.60;;;7.50;;
82618;SDS011;72286;12.138;-68.936;2023-08-24T17:14:06;10.10;;;6.90;;
82618;SDS011;72286;12.138;-68.936;2023-08-24T17:17:43;11.00;;;7.80;;
82618;SDS011;72286;12.138;-68.936;2023-08-24T17:21:22;11.20;;;7.60;;
82618;SDS011;72286;12.138;-68.936;2023-08-24T17:25:18;11.20;;;7.30;;
82618;SDS011;72286;12.138;-68.936;2023-08-24T17:28:37;11.40;;;7.30;;
82618;SDS011;72286;12.138;-68.936;2023-08-24T17:32:14;10.90;;;7.30;;
82618;SDS011;72286;12.138;-68.936;2023-08-24T17:35:52;10.10;;;7.20;;
82618;SDS011;72286;12.138;-68.936;2023-08-24T17:39:32;13.30;;;7.40;;
82618;SDS011;72286;12.138;-68.936;2023-08-24T17:43:10;8.10;;;6.80;;
82618;SDS011;72286;12.138;-68.936;2023-08-24T17:46:47;8.40;;;7.10;;
82618;SDS011;72286;12.138;-68.936;2023-08-24T17:50:25;9.50;;;7.00;;
82618;SDS011;72286;12.138;-68.936;2023-08-24T17:54:03;8.10;;;6.80;;
82618;SDS011;72286;12.138;-68.936;2023-08-24T17:57:41;9.10;;;7.20;;
82618;SDS011;72286;12.138;-68.936;2023-08-24T18:01:18;9.20;;;6.40;;
82618;SDS011;72286;12.138;-68.936;2023-08-24T18:04:56;9.90;;;7.80;;
82618;SDS011;72286;12.138;-68.936;2023-08-24T18:08:33;9.00;;;7.30;;
82618;SDS011;72286;12.138;-68.936;2023-08-24T18:12:31;10.40;;;7.50;;
82618;SDS011;72286;12.138;-68.936;2023-08-24T18:15:49;9.70;;;7.40;;
82618;SDS011;72286;12.138;-68.936;2023-08-24T18:19:27;10.50;;;8.20;;
82618;SDS011;72286;12.138;-68.936;2023-08-24T18:23:04;9.10;;;7.20;;
82618;SDS011;72286;12.138;-68.936;2023-08-24T18:27:02;11.70;;;8.00;;
82618;SDS011;72286;12.138;-68.936;2023-08-24T18:30:39;10.40;;;7.90;;
82618;SDS011;72286;12.138;-68.936;2023-08-24T18:33:59;11.60;;;8.30;;
82618;SDS011;72286;12.138;-68.936;2023-08-24T18:37:36;10.40;;;8.00;;
82618;SDS011;72286;12.138;-68.936;2023-08-24T18:41:34;11.10;;;7.50;;
82618;SDS011;72286;12.138;-68.936;2023-08-24T18:44:51;11.00;;;7.50;;
82618;SDS011;72286;12.138;-68.936;2023-08-24T18:48:30;9.50;;;7.50;;
82618;SDS011;72286;12.138;-68.936;2023-08-24T18:52:26;12.50;;;7.10;;
82618;SDS011;72286;12.138;-68.936;2023-08-24T18:55:45;11.80;;;7.20;;
82618;SDS011;72286;12.138;-68.936;2023-08-24T18:59:22;10.40;;;7.60;;
82618;SDS011;72286;12.138;-68.936;2023-08-24T19:03:20;10.50;;;7.10;;
82618;SDS011;72286;12.138;-68.936;2023-08-24T19:06:37;11.70;;;7.30;;
82618;SDS011;72286;12.138;-68.936;2023-08-24T19:10:15;8.70;;;5.80;;
82618;SDS011;72286;12.138;-68.936;2023-08-24T19:13:53;10.60;;;7.20;;
82618;SDS011;72286;12.138;-68.936;2023-08-24T19:17:31;10.00;;;6.70;;
82618;SDS011;72286;12.138;-68.936;2023-08-24T19:21:08;9.30;;;6.70;;
82618;SDS011;72286;12.138;-68.936;2023-08-24T19:24:46;10.20;;;5.20;;
82618;SDS011;72286;12.138;-68.936;2023-08-24T19:28:23;9.80;;;6.50;;
82618;SDS011;72286;12.138;-68.936;2023-08-24T19:32:02;12.40;;;6.80;;
82618;SDS011;72286;12.138;-68.936;2023-08-24T19:35:58;8.90;;;6.10;;
82618;SDS011;72286;12.138;-68.936;2023-08-24T19:39:37;8.90;;;6.00;;
82618;SDS011;72286;12.138;-68.936;2023-08-24T19:42:54;10.90;;;6.40;;
82618;SDS011;72286;12.138;-68.936;2023-08-24T19:46:32;8.70;;;5.80;;
82618;SDS011;72286;12.138;-68.936;2023-08-24T19:50:09;11.10;;;7.20;;
82618;SDS011;72286;12.138;-68.936;2023-08-24T19:54:07;6.50;;;5.30;;
82618;SDS011;72286;12.138;-68.936;2023-08-24T19:57:25;9.30;;;6.80;;
82618;SDS011;72286;12.138;-68.936;2023-08-24T20:01:23;9.60;;;6.50;;
82618;SDS011;72286;12.138;-68.936;2023-08-24T20:04:40;10.50;;;6.50;;
82618;SDS011;72286;12.138;-68.936;2023-08-24T20:08:19;8.90;;;6.50;;
82618;SDS011;72286;12.138;-68.936;2023-08-24T20:11:56;13.70;;;6.60;;
82618;SDS011;72286;12.138;-68.936;2023-08-24T20:15:34;9.90;;;5.70;;
82618;SDS011;72286;12.138;-68.936;2023-08-24T20:19:11;10.20;;;6.20;;
82618;SDS011;72286;12.138;-68.936;2023-08-24T20:22:49;11.20;;;6.40;;
82618;SDS011;72286;12.138;-68.936;2023-08-24T20:26:26;9.40;;;6.20;;
82618;SDS011;72286;12.138;-68.936;2023-08-24T20:30:24;10.50;;;6.70;;
82618;SDS011;72286;12.138;-68.936;2023-08-24T20:34:01;11.20;;;6.70;;
82618;SDS011;72286;12.138;-68.936;2023-08-24T20:37:20;12.40;;;6.50;;
82618;SDS011;72286;12.138;-68.936;2023-08-24T20:41:00;10.20;;;6.20;;
82618;SDS011;72286;12.138;-68.936;2023-08-24T20:44:35;9.50;;;6.00;;
82618;SDS011;72286;12.138;-68.936;2023-08-24T20:48:13;8.80;;;5.90;;
82618;SDS011;72286;12.138;-68.936;2023-08-24T20:51:51;11.60;;;5.60;;
82618;SDS011;72286;12.138;-68.936;2023-08-24T20:55:28;11.20;;;5.70;;
82618;SDS011;72286;12.138;-68.936;2023-08-24T20:59:06;10.70;;;5.80;;
82618;SDS011;72286;12.138;-68.936;2023-08-24T21:02:44;10.00;;;5.10;;
82618;SDS011;72286;12.138;-68.936;2023-08-24T21:06:22;7.70;;;5.30;;
82618;SDS011;72286;12.138;-68.936;2023-08-24T21:09:59;9.30;;;5.30;;